sensor_id;sensor_type;location;lat;lon;timestamp;temperature;humidity
1359;DHT22;673;48.098;14.422;2023-11-22T06:09:35;2.90;99.90
1359;DHT22;673;48.098;14.422;2023-11-22T06:12:03;2.90;99.90
1359;DHT22;673;48.098;14.422;2023-11-22T06:14:30;2.90;99.90
1359;DHT22;673;48.098;14.422;2023-11-22T06:16:57;2.90;99.90
1359;DHT22;673;48.098;14.422;2023-11-22T06:19:24;3.00;99.90
1359;DHT22;673;48.098;14.422;2023-11-22T06:21:51;2.90;99.90
1359;DHT22;673;48.098;14.422;2023-11-22T06:24:18;2.90;99.90
1359;DHT22;673;48.098;14.422;2023-11-22T06:26:47;2.80;99.90
1359;DHT22;673;48.098;14.422;2023-11-22T06:29:14;2.80;99.90
1359;DHT22;673;48.098;14.422;2023-11-22T06:31:42;2.90;99.90
1359;DHT22;673;48.098;14.422;2023-11-22T06:34:08;2.90;99.90
1359;DHT22;673;48.098;14.422;2023-11-22T06:36:36;2.80;99.90
1359;DHT22;673;48.098;14.422;2023-11-22T06:39:03;2.90;99.90
1359;DHT22;673;48.098;14.422;2023-11-22T06:41:31;2.90;99.90
1359;DHT22;673;48.098;14.422;2023-11-22T06:44:00;2.90;99.90
1359;DHT22;673;48.098;14.422;2023-11-22T06:46:28;2.90;99.90
1359;DHT22;673;48.098;14.422;2023-11-22T06:48:55;2.90;99.90
1359;DHT22;673;48.098;14.422;2023-11-22T06:51:22;2.80;99.90
1359;DHT22;673;48.098;14.422;2023-11-22T06:53:49;2.90;99.90
1359;DHT22;673;48.098;14.422;2023-11-22T06:56:17;2.90;99.90
1359;DHT22;673;48.098;14.422;2023-11-22T06:58:44;2.80;99.90
1359;DHT22;673;48.098;14.422;2023-11-22T07:01:13;2.80;99.90
1359;DHT22;673;48.098;14.422;2023-11-22T07:03:41;2.80;99.90
1359;DHT22;673;48.098;14.422;2023-11-22T07:06:08;2.70;99.90
1359;DHT22;673;48.098;14.422;2023-11-22T07:08:35;2.70;99.90
1359;DHT22;673;48.098;14.422;2023-11-22T07:11:02;2.70;99.90
1359;DHT22;673;48.098;14.422;2023-11-22T07:13:31;2.70;99.90
1359;DHT22;673;48.098;14.422;2023-11-22T07:15:59;2.70;99.90
1359;DHT22;673;48.098;14.422;2023-11-22T07:18:27;2.60;99.90
1359;DHT22;673;48.098;14.422;2023-11-22T07:20:54;2.60;99.90
1359;DHT22;673;48.098;14.422;2023-11-22T07:23:21;2.60;99.90
1359;DHT22;673;48.098;14.422;2023-11-22T07:25:52;2.60;99.90
1359;DHT22;673;48.098;14.422;2023-11-22T07:28:20;2.60;99.90
1359;DHT22;673;48.098;14.422;2023-11-22T07:30:47;2.50;99.90
1359;DHT22;673;48.098;14.422;2023-11-22T07:33:15;2.40;99.90
1359;DHT22;673;48.098;14.422;2023-11-22T07:35:43;2.50;99.90
1359;DHT22;673;48.098;14.422;2023-11-22T07:38:11;2.50;99.90
1359;DHT22;673;48.098;14.422;2023-11-22T07:40:40;2.40;99.90
1359;DHT22;673;48.098;14.422;2023-11-22T07:43:07;2.30;99.90
1359;DHT22;673;48.098;14.422;2023-11-22T07:45:34;2.20;99.90
1359;DHT22;673;48.098;14.422;2023-11-22T07:48:03;2.10;99.90
1359;DHT22;673;48.098;14.422;2023-11-22T07:50:30;2.10;99.90
1359;DHT22;673;48.098;14.422;2023-11-22T07:52:59;2.10;99.90
1359;DHT22;673;48.098;14.422;2023-11-22T07:55:28;2.10;99.90
1359;DHT22;673;48.098;14.422;2023-11-22T07:57:55;1.90;99.90
1359;DHT22;673;48.098;14.422;2023-11-22T08:00:22;2.00;99.90
1359;DHT22;673;48.098;14.422;2023-11-22T08:02:49;2.00;99.90
1359;DHT22;673;48.098;14.422;2023-11-22T08:05:19;2.00;99.90
1359;DHT22;673;48.098;14.422;2023-11-22T08:07:49;2.00;99.90
1359;DHT22;673;48.098;14.422;2023-11-22T08:10:17;2.00;99.90
1359;DHT22;673;48.098;14.422;2023-11-22T08:12:46;2.00;99.90
1359;DHT22;673;48.098;14.422;2023-11-22T08:15:16;2.00;99.90
1359;DHT22;673;48.098;14.422;2023-11-22T08:17:44;2.10;99.90
1359;DHT22;673;48.098;14.422;2023-11-22T08:20:11;2.20;99.90
1359;DHT22;673;48.098;14.422;2023-11-22T08:22:38;2.20;99.90
1359;DHT22;673;48.098;14.422;2023-11-22T08:25:07;2.20;99.90
1359;DHT22;673;48.098;14.422;2023-11-22T08:27:35;2.20;99.90
1359;DHT22;673;48.098;14.422;2023-11-22T08:30:03;2.30;99.90
1359;DHT22;673;48.098;14.422;2023-11-22T08:32:30;2.40;99.90
1359;DHT22;673;48.098;14.422;2023-11-22T08:34:57;2.40;99.90
1359;DHT22;673;48.098;14.422;2023-11-22T08:37:24;2.30;99.90
1359;DHT22;673;48.098;14.422;2023-11-22T08:39:51;2.50;99.90
1359;DHT22;673;48.098;14.422;2023-11-22T08:42:19;2.50;99.90
1359;DHT22;673;48.098;14.422;2023-11-22T08:44:47;2.60;99.90
1359;DHT22;673;48.098;14.422;2023-11-22T08:47:14;2.80;99.90
1359;DHT22;673;48.098;14.422;2023-11-22T08:49:41;2.70;99.90
1359;DHT22;673;48.098;14.422;2023-11-22T08:52:08;2.70;99.90
1359;DHT22;673;48.098;14.422;2023-11-22T08:54:35;2.70;99.90
1359;DHT22;673;48.098;14.422;2023-11-22T08:57:02;2.80;99.90
1359;DHT22;673;48.098;14.422;2023-11-22T08:59:31;2.90;99.90
1359;DHT22;673;48.098;14.422;2023-11-22T09:02:05;2.90;99.90
1359;DHT22;673;48.098;14.422;2023-11-22T09:04:33;2.90;99.90
1359;DHT22;673;48.098;14.422;2023-11-22T09:07:01;3.10;99.90
1359;DHT22;673;48.098;14.422;2023-11-22T09:09:28;3.10;99.90
1359;DHT22;673;48.098;14.422;2023-11-22T09:11:57;3.20;99.90
1359;DHT22;673;48.098;14.422;2023-11-22T09:14:24;3.30;99.90
1359;DHT22;673;48.098;14.422;2023-11-22T09:16:52;3.40;99.90
1359;DHT22;673;48.098;14.422;2023-11-22T09:19:21;3.50;99.90
1359;DHT22;673;48.098;14.422;2023-11-22T09:21:49;3.50;99.90
1359;DHT22;673;48.098;14.422;2023-11-22T09:24:16;3.60;99.90
1359;DHT22;673;48.098;14.422;2023-11-22T09:26:43;3.50;99.90
1359;DHT22;673;48.098;14.422;2023-11-22T09:29:10;3.60;99.90
1359;DHT22;673;48.098;14.422;2023-11-22T09:31:39;3.70;99.90
1359;DHT22;673;48.098;14.422;2023-11-22T09:34:07;3.80;99.90
1359;DHT22;673;48.098;14.422;2023-11-22T09:36:36;3.50;99.90
1359;DHT22;673;48.098;14.422;2023-11-22T09:39:03;3.40;99.90
1359;DHT22;673;48.098;14.422;2023-11-22T09:41:34;3.20;99.90
1359;DHT22;673;48.098;14.422;2023-11-22T09:44:02;3.10;99.90
1359;DHT22;673;48.098;14.422;2023-11-22T09:46:30;3.10;99.90
1359;DHT22;673;48.098;14.422;2023-11-22T09:49:01;3.10;99.90
1359;DHT22;673;48.098;14.422;2023-11-22T09:51:29;3.20;99.90
1359;DHT22;673;48.098;14.422;2023-11-22T09:54:00;3.00;99.90
1359;DHT22;673;48.098;14.422;2023-11-22T09:56:30;2.90;99.90
1359;DHT22;673;48.098;14.422;2023-11-22T09:59:00;3.00;99.90
1359;DHT22;673;48.098;14.422;2023-11-22T10:01:27;3.00;99.90
1359;DHT22;673;48.098;14.422;2023-11-22T10:03:57;2.90;99.90
1359;DHT22;673;48.098;14.422;2023-11-22T10:06:24;3.00;99.90
1359;DHT22;673;48.098;14.422;2023-11-22T10:08:51;2.90;99.90
1359;DHT22;673;48.098;14.422;2023-11-22T10:11:20;2.90;99.90
1359;DHT22;673;48.098;14.422;2023-11-22T10:13:48;3.00;99.90
1359;DHT22;673;48.098;14.422;2023-11-22T10:16:17;3.00;99.90
1359;DHT22;673;48.098;14.422;2023-11-22T10:18:47;3.10;99.90
1359;DHT22;673;48.098;14.422;2023-11-22T10:21:22;3.20;99.90
1359;DHT22;673;48.098;14.422;2023-11-22T10:23:50;3.00;99.90
1359;DHT22;673;48.098;14.422;2023-11-22T10:26:20;2.90;99.90
1359;DHT22;673;48.098;14.422;2023-11-22T10:28:50;2.80;99.90
1359;DHT22;673;48.098;14.422;2023-11-22T10:31:18;2.90;99.90
1359;DHT22;673;48.098;14.422;2023-11-22T10:33:46;3.00;99.90
1359;DHT22;673;48.098;14.422;2023-11-22T10:36:13;3.10;99.90
1359;DHT22;673;48.098;14.422;2023-11-22T10:38:41;3.20;99.90
1359;DHT22;673;48.098;14.422;2023-11-22T10:41:08;3.20;99.90
1359;DHT22;673;48.098;14.422;2023-11-22T10:43:37;3.40;99.90
1359;DHT22;673;48.098;14.422;2023-11-22T10:46:05;3.50;99.90
1359;DHT22;673;48.098;14.422;2023-11-22T10:48:32;3.70;99.90
1359;DHT22;673;48.098;14.422;2023-11-22T10:51:01;3.60;99.90
1359;DHT22;673;48.098;14.422;2023-11-22T10:53:32;3.50;99.90
1359;DHT22;673;48.098;14.422;2023-11-22T10:56:04;3.50;99.90
1359;DHT22;673;48.098;14.422;2023-11-22T10:58:32;3.70;99.90
1359;DHT22;673;48.098;14.422;2023-11-22T11:01:04;3.30;99.90
1359;DHT22;673;48.098;14.422;2023-11-22T11:03:37;3.40;99.90
1359;DHT22;673;48.098;14.422;2023-11-22T11:06:08;3.50;99.90
1359;DHT22;673;48.098;14.422;2023-11-22T11:08:39;3.60;99.90
1359;DHT22;673;48.098;14.422;2023-11-22T11:11:06;3.70;99.90
1359;DHT22;673;48.098;14.422;2023-11-22T11:13:33;3.80;99.90
1359;DHT22;673;48.098;14.422;2023-11-22T11:16:02;3.80;99.90
1359;DHT22;673;48.098;14.422;2023-11-22T11:18:29;3.70;99.90
1359;DHT22;673;48.098;14.422;2023-11-22T11:20:58;3.70;99.90
1359;DHT22;673;48.098;14.422;2023-11-22T11:23:27;3.60;99.90
1359;DHT22;673;48.098;14.422;2023-11-22T11:25:55;3.50;99.90
1359;DHT22;673;48.098;14.422;2023-11-22T11:28:23;3.60;99.90
1359;DHT22;673;48.098;14.422;2023-11-22T11:30:52;3.50;99.90
1359;DHT22;673;48.098;14.422;2023-11-22T11:33:32;3.20;99.90
1359;DHT22;673;48.098;14.422;2023-11-22T11:36:02;3.20;99.90
1359;DHT22;673;48.098;14.422;2023-11-22T11:38:31;3.20;99.90
1359;DHT22;673;48.098;14.422;2023-11-22T11:41:06;3.20;99.90
1359;DHT22;673;48.098;14.422;2023-11-22T11:43:43;3.40;99.90
1359;DHT22;673;48.098;14.422;2023-11-22T11:46:11;3.50;99.90
1359;DHT22;673;48.098;14.422;2023-11-22T11:48:42;3.50;99.90
1359;DHT22;673;48.098;14.422;2023-11-22T11:51:13;3.40;99.90
1359;DHT22;673;48.098;14.422;2023-11-22T11:53:40;3.50;99.90
1359;DHT22;673;48.098;14.422;2023-11-22T11:56:08;3.50;99.90
1359;DHT22;673;48.098;14.422;2023-11-22T11:58:35;3.40;99.90
1359;DHT22;673;48.098;14.422;2023-11-22T12:01:04;3.50;99.90
1359;DHT22;673;48.098;14.422;2023-11-22T12:03:31;3.50;99.90
1359;DHT22;673;48.098;14.422;2023-11-22T12:05:59;3.70;99.90
1359;DHT22;673;48.098;14.422;2023-11-22T12:08:26;3.80;99.90
1359;DHT22;673;48.098;14.422;2023-11-22T12:10:56;3.70;99.90
1359;DHT22;673;48.098;14.422;2023-11-22T12:13:24;3.60;99.90
1359;DHT22;673;48.098;14.422;2023-11-22T12:15:52;3.80;99.90
1359;DHT22;673;48.098;14.422;2023-11-22T12:18:20;3.80;99.90
1359;DHT22;673;48.098;14.422;2023-11-22T12:20:54;3.80;99.90
1359;DHT22;673;48.098;14.422;2023-11-22T12:23:25;3.80;99.90
1359;DHT22;673;48.098;14.422;2023-11-22T12:25:56;3.80;99.90
1359;DHT22;673;48.098;14.422;2023-11-22T12:28:24;3.90;99.90
1359;DHT22;673;48.098;14.422;2023-11-22T12:30:53;3.80;99.90
1359;DHT22;673;48.098;14.422;2023-11-22T12:33:20;3.80;99.90
1359;DHT22;673;48.098;14.422;2023-11-22T12:35:47;3.70;99.90
1359;DHT22;673;48.098;14.422;2023-11-22T12:38:14;3.70;99.90
1359;DHT22;673;48.098;14.422;2023-11-22T12:40:46;3.60;99.90
1359;DHT22;673;48.098;14.422;2023-11-22T12:43:13;3.50;99.90
1359;DHT22;673;48.098;14.422;2023-11-22T12:45:41;3.60;99.90
1359;DHT22;673;48.098;14.422;2023-11-22T12:48:20;3.60;99.90
1359;DHT22;673;48.098;14.422;2023-11-22T12:50:49;3.70;99.90
1359;DHT22;673;48.098;14.422;2023-11-22T12:53:16;3.80;99.90
1359;DHT22;673;48.098;14.422;2023-11-22T12:55:46;3.90;99.90
1359;DHT22;673;48.098;14.422;2023-11-22T12:58:15;3.80;99.90
1359;DHT22;673;48.098;14.422;2023-11-22T13:00:43;3.70;99.90
1359;DHT22;673;48.098;14.422;2023-11-22T13:03:10;3.90;99.90
1359;DHT22;673;48.098;14.422;2023-11-22T13:05:37;3.70;99.90
1359;DHT22;673;48.098;14.422;2023-11-22T13:08:05;3.80;99.90
1359;DHT22;673;48.098;14.422;2023-11-22T13:10:32;3.80;99.90
1359;DHT22;673;48.098;14.422;2023-11-22T13:13:00;3.80;99.90
1359;DHT22;673;48.098;14.422;2023-11-22T13:15:28;3.70;99.90
1359;DHT22;673;48.098;14.422;2023-11-22T13:17:55;3.80;99.90
1359;DHT22;673;48.098;14.422;2023-11-22T13:20:23;3.80;99.90
1359;DHT22;673;48.098;14.422;2023-11-22T13:22:52;3.90;99.90
1359;DHT22;673;48.098;14.422;2023-11-22T13:25:19;3.90;99.90
1359;DHT22;673;48.098;14.422;2023-11-22T13:27:46;3.90;99.90
1359;DHT22;673;48.098;14.422;2023-11-22T13:30:15;3.90;99.90
1359;DHT22;673;48.098;14.422;2023-11-22T13:32:45;3.90;99.90
1359;DHT22;673;48.098;14.422;2023-11-22T13:35:13;3.80;99.90
1359;DHT22;673;48.098;14.422;2023-11-22T13:37:43;3.80;99.90
1359;DHT22;673;48.098;14.422;2023-11-22T13:40:11;3.80;99.90
1359;DHT22;673;48.098;14.422;2023-11-22T13:42:42;3.90;99.90
1359;DHT22;673;48.098;14.422;2023-11-22T13:45:10;3.80;99.90
1359;DHT22;673;48.098;14.422;2023-11-22T13:47:42;3.80;99.90
1359;DHT22;673;48.098;14.422;2023-11-22T13:50:12;3.80;99.90
1359;DHT22;673;48.098;14.422;2023-11-22T13:52:41;3.90;99.90
1359;DHT22;673;48.098;14.422;2023-11-22T13:55:08;4.00;99.90
1359;DHT22;673;48.098;14.422;2023-11-22T13:57:38;4.20;99.90
1359;DHT22;673;48.098;14.422;2023-11-22T14:00:06;4.10;99.90
1359;DHT22;673;48.098;14.422;2023-11-22T14:02:38;4.00;99.90
1359;DHT22;673;48.098;14.422;2023-11-22T14:05:08;4.00;99.90
1359;DHT22;673;48.098;14.422;2023-11-22T14:07:37;4.10;99.90
1359;DHT22;673;48.098;14.422;2023-11-22T14:10:06;4.10;99.90
1359;DHT22;673;48.098;14.422;2023-11-22T14:12:33;4.20;99.90
1359;DHT22;673;48.098;14.422;2023-11-22T14:15:01;4.10;99.90
1359;DHT22;673;48.098;14.422;2023-11-22T14:17:30;4.00;99.90
1359;DHT22;673;48.098;14.422;2023-11-22T14:19:57;3.80;99.90
1359;DHT22;673;48.098;14.422;2023-11-22T14:22:25;3.90;99.90
1359;DHT22;673;48.098;14.422;2023-11-22T14:24:53;3.90;99.90
1359;DHT22;673;48.098;14.422;2023-11-22T14:27:21;3.80;99.90
1359;DHT22;673;48.098;14.422;2023-11-22T14:29:48;3.90;99.90
1359;DHT22;673;48.098;14.422;2023-11-22T14:32:16;3.70;99.90
1359;DHT22;673;48.098;14.422;2023-11-22T14:34:43;3.60;99.90
1359;DHT22;673;48.098;14.422;2023-11-22T14:37:10;3.60;99.90
1359;DHT22;673;48.098;14.422;2023-11-22T14:39:39;3.30;99.90
1359;DHT22;673;48.098;14.422;2023-11-22T14:42:06;3.30;99.90
1359;DHT22;673;48.098;14.422;2023-11-22T14:44:33;3.30;99.90
1359;DHT22;673;48.098;14.422;2023-11-22T14:47:01;3.10;99.90
1359;DHT22;673;48.098;14.422;2023-11-22T14:49:32;3.10;99.90
1359;DHT22;673;48.098;14.422;2023-11-22T14:51:59;3.20;99.90
1359;DHT22;673;48.098;14.422;2023-11-22T14:54:26;3.20;99.90
1359;DHT22;673;48.098;14.422;2023-11-22T14:56:55;3.10;99.90
1359;DHT22;673;48.098;14.422;2023-11-22T14:59:27;3.10;99.90
1359;DHT22;673;48.098;14.422;2023-11-22T15:01:56;3.10;99.90
1359;DHT22;673;48.098;14.422;2023-11-22T15:04:23;3.00;99.90
1359;DHT22;673;48.098;14.422;2023-11-22T15:06:51;3.10;99.90
1359;DHT22;673;48.098;14.422;2023-11-22T15:09:18;3.10;99.90
1359;DHT22;673;48.098;14.422;2023-11-22T15:11:47;3.20;99.90
1359;DHT22;673;48.098;14.422;2023-11-22T15:14:16;3.20;99.90
1359;DHT22;673;48.098;14.422;2023-11-22T15:16:43;3.20;99.90
1359;DHT22;673;48.098;14.422;2023-11-22T15:19:10;3.20;99.90
1359;DHT22;673;48.098;14.422;2023-11-22T15:21:37;3.20;99.90
1359;DHT22;673;48.098;14.422;2023-11-22T15:24:04;3.20;99.90
1359;DHT22;673;48.098;14.422;2023-11-22T15:26:31;3.20;99.90
1359;DHT22;673;48.098;14.422;2023-11-22T15:29:00;3.20;99.90
1359;DHT22;673;48.098;14.422;2023-11-22T15:31:28;3.10;99.90
1359;DHT22;673;48.098;14.422;2023-11-22T15:33:56;3.20;99.90
1359;DHT22;673;48.098;14.422;2023-11-22T15:36:23;3.30;99.90
1359;DHT22;673;48.098;14.422;2023-11-22T15:38:50;3.30;99.90
1359;DHT22;673;48.098;14.422;2023-11-22T15:41:17;3.20;99.90
1359;DHT22;673;48.098;14.422;2023-11-22T15:43:45;3.30;99.90
1359;DHT22;673;48.098;14.422;2023-11-22T15:46:12;3.30;99.90
1359;DHT22;673;48.098;14.422;2023-11-22T15:48:43;3.30;99.90
1359;DHT22;673;48.098;14.422;2023-11-22T15:51:11;3.10;99.90
1359;DHT22;673;48.098;14.422;2023-11-22T15:53:38;3.10;99.90
1359;DHT22;673;48.098;14.422;2023-11-22T15:56:05;3.00;99.90
1359;DHT22;673;48.098;14.422;2023-11-22T15:58:34;3.10;99.90
1359;DHT22;673;48.098;14.422;2023-11-22T16:01:02;3.00;99.90
1359;DHT22;673;48.098;14.422;2023-11-22T16:03:30;3.00;99.90
1359;DHT22;673;48.098;14.422;2023-11-22T16:06:00;3.10;99.90
1359;DHT22;673;48.098;14.422;2023-11-22T16:08:28;3.10;99.90
1359;DHT22;673;48.098;14.422;2023-11-22T16:10:55;3.10;99.90
1359;DHT22;673;48.098;14.422;2023-11-22T16:13:23;3.10;99.90
1359;DHT22;673;48.098;14.422;2023-11-22T16:15:51;3.00;99.90
1359;DHT22;673;48.098;14.422;2023-11-22T16:18:19;3.00;99.90
1359;DHT22;673;48.098;14.422;2023-11-22T16:20:51;3.00;99.90
1359;DHT22;673;48.098;14.422;2023-11-22T16:23:19;2.90;99.90
1359;DHT22;673;48.098;14.422;2023-11-22T16:25:46;2.90;99.90
1359;DHT22;673;48.098;14.422;2023-11-22T16:28:13;2.90;99.90
1359;DHT22;673;48.098;14.422;2023-11-22T16:30:40;3.00;99.90
1359;DHT22;673;48.098;14.422;2023-11-22T16:33:08;3.00;99.90
1359;DHT22;673;48.098;14.422;2023-11-22T16:35:35;3.00;99.90
1359;DHT22;673;48.098;14.422;2023-11-22T16:38:02;3.10;99.90
1359;DHT22;673;48.098;14.422;2023-11-22T16:40:31;3.10;99.90
1359;DHT22;673;48.098;14.422;2023-11-22T16:42:58;3.10;99.90
1359;DHT22;673;48.098;14.422;2023-11-22T16:45:25;3.10;99.90
1359;DHT22;673;48.098;14.422;2023-11-22T16:47:52;3.00;99.90
1359;DHT22;673;48.098;14.422;2023-11-22T16:50:20;3.00;99.90
1359;DHT22;673;48.098;14.422;2023-11-22T16:52:47;3.10;99.90
1359;DHT22;673;48.098;14.422;2023-11-22T16:55:14;3.10;99.90
1359;DHT22;673;48.098;14.422;2023-11-22T16:57:43;3.00;99.90
1359;DHT22;673;48.098;14.422;2023-11-22T17:00:11;3.00;99.90
1359;DHT22;673;48.098;14.422;2023-11-22T17:02:43;3.00;99.90
1359;DHT22;673;48.098;14.422;2023-11-22T17:05:10;3.00;99.90
1359;DHT22;673;48.098;14.422;2023-11-22T17:07:37;3.00;99.90
1359;DHT22;673;48.098;14.422;2023-11-22T17:10:05;2.90;99.90
1359;DHT22;673;48.098;14.422;2023-11-22T17:12:32;2.90;99.90
1359;DHT22;673;48.098;14.422;2023-11-22T17:15:00;2.90;99.90
1359;DHT22;673;48.098;14.422;2023-11-22T17:17:28;3.00;99.90
1359;DHT22;673;48.098;14.422;2023-11-22T17:19:55;3.00;99.90
1359;DHT22;673;48.098;14.422;2023-11-22T17:22:22;3.00;99.90
1359;DHT22;673;48.098;14.422;2023-11-22T17:24:52;2.90;99.90
1359;DHT22;673;48.098;14.422;2023-11-22T17:27:19;2.90;99.90
1359;DHT22;673;48.098;14.422;2023-11-22T17:29:46;2.90;99.90
1359;DHT22;673;48.098;14.422;2023-11-22T17:32:17;2.90;99.90
1359;DHT22;673;48.098;14.422;2023-11-22T17:34:44;2.90;99.90
1359;DHT22;673;48.098;14.422;2023-11-22T17:37:11;2.90;99.90
1359;DHT22;673;48.098;14.422;2023-11-22T17:39:39;2.90;99.90
1359;DHT22;673;48.098;14.422;2023-11-22T17:42:06;2.90;99.90
1359;DHT22;673;48.098;14.422;2023-11-22T17:44:34;2.90;99.90
1359;DHT22;673;48.098;14.422;2023-11-22T17:47:01;2.90;99.90
1359;DHT22;673;48.098;14.422;2023-11-22T17:49:35;2.80;99.90
1359;DHT22;673;48.098;14.422;2023-11-22T17:52:03;2.80;99.90
1359;DHT22;673;48.098;14.422;2023-11-22T17:54:30;2.70;99.90
1359;DHT22;673;48.098;14.422;2023-11-22T17:56:57;2.70;99.90
1359;DHT22;673;48.098;14.422;2023-11-22T17:59:24;2.80;99.90
1359;DHT22;673;48.098;14.422;2023-11-22T18:01:51;2.80;99.90
1359;DHT22;673;48.098;14.422;2023-11-22T18:04:18;2.80;99.90
1359;DHT22;673;48.098;14.422;2023-11-22T18:06:46;2.80;99.90
1359;DHT22;673;48.098;14.422;2023-11-22T18:09:15;2.80;99.90
1359;DHT22;673;48.098;14.422;2023-11-22T18:11:41;2.80;99.90
1359;DHT22;673;48.098;14.422;2023-11-22T18:14:11;2.80;99.90
1359;DHT22;673;48.098;14.422;2023-11-22T18:16:38;2.80;99.90
1359;DHT22;673;48.098;14.422;2023-11-22T18:19:07;2.80;99.90
1359;DHT22;673;48.098;14.422;2023-11-22T18:21:34;2.80;99.90
1359;DHT22;673;48.098;14.422;2023-11-22T18:24:03;2.80;99.90
1359;DHT22;673;48.098;14.422;2023-11-22T18:26:31;2.80;99.90
1359;DHT22;673;48.098;14.422;2023-11-22T18:28:57;2.80;99.90
1359;DHT22;673;48.098;14.422;2023-11-22T18:31:24;2.70;99.90
1359;DHT22;673;48.098;14.422;2023-11-22T18:33:51;2.70;99.90
1359;DHT22;673;48.098;14.422;2023-11-22T18:36:18;2.70;99.90
1359;DHT22;673;48.098;14.422;2023-11-22T18:38:47;2.60;99.90
1359;DHT22;673;48.098;14.422;2023-11-22T18:41:15;2.70;99.90
1359;DHT22;673;48.098;14.422;2023-11-22T18:43:44;2.70;99.90
1359;DHT22;673;48.098;14.422;2023-11-22T18:46:11;2.70;99.90
1359;DHT22;673;48.098;14.422;2023-11-22T18:48:38;2.80;99.90
1359;DHT22;673;48.098;14.422;2023-11-22T18:51:05;2.90;99.90
1359;DHT22;673;48.098;14.422;2023-11-22T18:53:32;2.80;99.90
1359;DHT22;673;48.098;14.422;2023-11-22T18:55:59;2.80;99.90
1359;DHT22;673;48.098;14.422;2023-11-22T18:58:28;2.80;99.90
1359;DHT22;673;48.098;14.422;2023-11-22T19:00:55;2.80;99.90
1359;DHT22;673;48.098;14.422;2023-11-22T19:03:22;2.80;99.90
1359;DHT22;673;48.098;14.422;2023-11-22T19:05:49;2.70;99.90
1359;DHT22;673;48.098;14.422;2023-11-22T19:08:20;2.70;99.90
1359;DHT22;673;48.098;14.422;2023-11-22T19:10:47;2.70;99.90
1359;DHT22;673;48.098;14.422;2023-11-22T19:13:14;2.80;99.90
1359;DHT22;673;48.098;14.422;2023-11-22T19:15:44;2.70;99.90
1359;DHT22;673;48.098;14.422;2023-11-22T19:18:11;2.70;99.90
1359;DHT22;673;48.098;14.422;2023-11-22T19:20:37;2.60;99.90
1359;DHT22;673;48.098;14.422;2023-11-22T19:23:05;2.60;99.90
1359;DHT22;673;48.098;14.422;2023-11-22T19:25:32;2.60;99.90
1359;DHT22;673;48.098;14.422;2023-11-22T19:28:01;2.70;99.90
1359;DHT22;673;48.098;14.422;2023-11-22T19:30:31;2.70;99.90
1359;DHT22;673;48.098;14.422;2023-11-22T19:33:00;2.60;99.90
1359;DHT22;673;48.098;14.422;2023-11-22T19:35:29;2.60;99.90
1359;DHT22;673;48.098;14.422;2023-11-22T19:37:57;2.60;99.90
1359;DHT22;673;48.098;14.422;2023-11-22T19:40:25;2.70;99.90
1359;DHT22;673;48.098;14.422;2023-11-22T19:42:53;2.60;99.90
1359;DHT22;673;48.098;14.422;2023-11-22T19:45:20;2.60;99.90
1359;DHT22;673;48.098;14.422;2023-11-22T19:47:47;2.70;99.90
1359;DHT22;673;48.098;14.422;2023-11-22T19:50:16;2.70;99.90
1359;DHT22;673;48.098;14.422;2023-11-22T19:52:45;2.70;99.90
1359;DHT22;673;48.098;14.422;2023-11-22T19:55:12;2.60;99.90
1359;DHT22;673;48.098;14.422;2023-11-22T19:57:40;2.60;99.90
1359;DHT22;673;48.098;14.422;2023-11-22T20:00:08;2.60;99.90
1359;DHT22;673;48.098;14.422;2023-11-22T20:02:36;2.60;99.90
1359;DHT22;673;48.098;14.422;2023-11-22T20:05:03;2.60;99.90
1359;DHT22;673;48.098;14.422;2023-11-22T20:07:32;2.70;99.90
1359;DHT22;673;48.098;14.422;2023-11-22T20:09:59;2.60;99.90
1359;DHT22;673;48.098;14.422;2023-11-22T20:12:27;2.60;99.90
1359;DHT22;673;48.098;14.422;2023-11-22T20:14:53;2.70;99.90
1359;DHT22;673;48.098;14.422;2023-11-22T20:17:20;2.80;99.90
1359;DHT22;673;48.098;14.422;2023-11-22T20:19:47;2.70;99.90
1359;DHT22;673;48.098;14.422;2023-11-22T20:22:15;2.70;99.90
1359;DHT22;673;48.098;14.422;2023-11-22T20:24:43;2.70;99.90
1359;DHT22;673;48.098;14.422;2023-11-22T20:27:10;2.80;99.90
1359;DHT22;673;48.098;14.422;2023-11-22T20:29:38;2.80;99.90
1359;DHT22;673;48.098;14.422;2023-11-22T20:32:06;2.80;99.90
1359;DHT22;673;48.098;14.422;2023-11-22T20:34:33;2.80;99.90
1359;DHT22;673;48.098;14.422;2023-11-22T20:37:00;2.80;99.90
1359;DHT22;673;48.098;14.422;2023-11-22T20:39:27;2.80;99.90
1359;DHT22;673;48.098;14.422;2023-11-22T20:41:56;2.90;99.90
1359;DHT22;673;48.098;14.422;2023-11-22T20:44:23;2.90;99.90
1359;DHT22;673;48.098;14.422;2023-11-22T20:46:49;2.90;99.90
1359;DHT22;673;48.098;14.422;2023-11-22T20:49:16;2.90;99.90
1359;DHT22;673;48.098;14.422;2023-11-22T20:51:45;2.90;99.90
1359;DHT22;673;48.098;14.422;2023-11-22T20:54:12;2.80;99.90
1359;DHT22;673;48.098;14.422;2023-11-22T20:56:38;2.80;99.90
1359;DHT22;673;48.098;14.422;2023-11-22T20:59:07;2.80;99.90
1359;DHT22;673;48.098;14.422;2023-11-22T21:01:34;2.80;99.90
1359;DHT22;673;48.098;14.422;2023-11-22T21:04:01;2.80;99.90
1359;DHT22;673;48.098;14.422;2023-11-22T21:06:31;2.80;99.90
1359;DHT22;673;48.098;14.422;2023-11-22T21:08:58;2.80;99.90
1359;DHT22;673;48.098;14.422;2023-11-22T21:11:26;2.80;99.90
1359;DHT22;673;48.098;14.422;2023-11-22T21:13:52;2.80;99.90
1359;DHT22;673;48.098;14.422;2023-11-22T21:16:22;2.80;99.90
1359;DHT22;673;48.098;14.422;2023-11-22T21:18:50;2.80;99.90
1359;DHT22;673;48.098;14.422;2023-11-22T21:21:17;2.80;99.90
1359;DHT22;673;48.098;14.422;2023-11-22T21:23:44;2.80;99.90
1359;DHT22;673;48.098;14.422;2023-11-22T21:26:11;2.80;99.90
1359;DHT22;673;48.098;14.422;2023-11-22T21:28:38;2.80;99.90
1359;DHT22;673;48.098;14.422;2023-11-22T21:31:13;2.80;99.90
1359;DHT22;673;48.098;14.422;2023-11-22T21:33:44;2.70;99.90
1359;DHT22;673;48.098;14.422;2023-11-22T21:36:12;2.70;99.90
1359;DHT22;673;48.098;14.422;2023-11-22T21:38:40;2.70;99.90
1359;DHT22;673;48.098;14.422;2023-11-22T21:41:07;2.70;99.90
1359;DHT22;673;48.098;14.422;2023-11-22T21:43:35;2.70;99.90
1359;DHT22;673;48.098;14.422;2023-11-22T21:46:04;2.70;99.90
1359;DHT22;673;48.098;14.422;2023-11-22T21:48:31;2.70;99.90
1359;DHT22;673;48.098;14.422;2023-11-22T21:50:59;2.70;99.90
1359;DHT22;673;48.098;14.422;2023-11-22T21:53:26;2.70;99.90
1359;DHT22;673;48.098;14.422;2023-11-22T21:55:53;2.70;99.90
1359;DHT22;673;48.098;14.422;2023-11-22T21:58:20;2.70;99.90
1359;DHT22;673;48.098;14.422;2023-11-22T22:00:48;2.70;99.90
1359;DHT22;673;48.098;14.422;2023-11-22T22:03:16;2.70;99.90
1359;DHT22;673;48.098;14.422;2023-11-22T22:05:43;2.70;99.90
1359;DHT22;673;48.098;14.422;2023-11-22T22:08:12;2.70;99.90
1359;DHT22;673;48.098;14.422;2023-11-22T22:10:39;2.70;99.90
1359;DHT22;673;48.098;14.422;2023-11-22T22:13:06;2.70;99.90
1359;DHT22;673;48.098;14.422;2023-11-22T22:15:34;2.70;99.90
1359;DHT22;673;48.098;14.422;2023-11-22T22:18:01;2.70;99.90
1359;DHT22;673;48.098;14.422;2023-11-22T22:20:28;2.70;99.90
1359;DHT22;673;48.098;14.422;2023-11-22T22:22:56;2.70;99.90
1359;DHT22;673;48.098;14.422;2023-11-22T22:25:25;2.70;99.90
1359;DHT22;673;48.098;14.422;2023-11-22T22:27:52;2.70;99.90
1359;DHT22;673;48.098;14.422;2023-11-22T22:30:19;2.80;99.90